Providence, Rhode Island
Traffic Map
Current Weather Conditions
Providence, Rhode Island
Broken Clouds
Broken Clouds
77°
Feels Like: 78°
Wind Chill: 77° Ceiling: 25000
Heat Index: 78° Visibility: 10mi
Dew Point: 54° Wind: 7mph
Humidity: 45% Direction: 290° (WNW)
Pressure: 29.84in Gusts: 0mph
Raw Report DataKPVD 291851Z 29006KT 10SM FEW049 SCT060 BKN250 25/12 A2984 RMK AO2 SLP102 T02500122
Traffic Incident Summary
Active as of:
Severity:
Category:
InformationThere was an issue retrieving the traffic information for this location. Please try a different location or try again shortly.
Advertisements
Track Severe Weather on mobile